Time;durP1;ratioP1;P1;durP2;ratioP2;P2;SDS_P1;SDS_P2;PMS_P1;PMS_P2;Temp;Humidity;BMP_temperature;BMP_pressure;BME280_temperature;BME280_humidity;BME280_pressure;Samples;Min_cycle;Max_cycle;Signal;HPM_P1;HPM_P2
2021/01/18 00:02:01;;;;;;;60.35;29.85;;;;;;;-15.51;79.59;100541.93;1744223;80;25265;-74
2021/01/18 00:04:28;;;;;;;65.12;30.12;;;;;;;-15.48;79.61;100542.47;1710632;83;25389;-75
2021/01/18 00:06:55;;;;;;;62.73;30.23;;;;;;;-15.46;79.55;100541.28;1747501;80;25365;-75
2021/01/18 00:09:21;;;;;;;59.98;29.57;;;;;;;-15.45;79.57;100544.25;1704233;83;25759;-75
2021/01/18 00:11:48;;;;;;;63.05;29.80;;;;;;;-15.45;79.58;100542.58;1726778;83;25189;-75
2021/01/18 00:14:15;;;;;;;61.63;28.00;;;;;;;-15.45;79.59;100543.84;1726386;83;25637;-75
2021/01/18 00:16:41;;;;;;;60.52;26.17;;;;;;;-15.45;79.57;100542.98;1695860;84;25355;-74
2021/01/18 00:19:08;;;;;;;54.98;25.37;;;;;;;-15.44;79.65;100543.46;1726453;83;25190;-75
2021/01/18 00:21:35;;;;;;;40.35;21.62;;;;;;;-15.46;79.63;100543.80;1743203;80;25259;-74
2021/01/18 00:24:02;;;;;;;60.17;27.70;;;;;;;-15.50;79.76;100535.22;1695761;84;25690;-74
2021/01/18 00:26:29;;;;;;;59.15;28.05;;;;;;;-15.51;79.57;100533.52;1698036;81;25242;-74
2021/01/18 00:28:55;;;;;;;54.42;27.60;;;;;;;-15.52;79.63;100538.08;1726160;83;25178;-74
2021/01/18 00:31:22;;;;;;;53.08;25.48;;;;;;;-15.48;79.63;100539.06;1756430;81;25280;-75
2021/01/18 00:33:49;;;;;;;57.03;27.35;;;;;;;-15.49;79.56;100535.69;1727142;81;25608;-74
2021/01/18 00:36:16;;;;;;;49.83;24.87;;;;;;;-15.50;79.56;100540.27;1724881;82;25248;-74
2021/01/18 00:38:42;;;;;;;52.25;25.85;;;;;;;-15.48;79.60;100541.22;1754707;80;25694;-74
2021/01/18 00:41:09;;;;;;;62.27;30.08;;;;;;;-15.51;79.61;100535.63;1702686;83;25256;-74
2021/01/18 00:43:36;;;;;;;57.73;27.90;;;;;;;-15.52;79.56;100539.34;1726340;83;25213;-75
2021/01/18 00:46:03;;;;;;;61.77;29.25;;;;;;;-15.51;79.61;100536.89;1698220;83;25287;-75
2021/01/18 00:48:31;;;;;;;57.67;28.05;;;;;;;-15.50;79.63;100533.95;1739602;80;25237;-74
2021/01/18 00:50:57;;;;;;;59.08;28.07;;;;;;;-15.50;79.62;100537.73;1726088;82;25273;-74
2021/01/18 00:53:24;;;;;;;52.60;25.37;;;;;;;-15.48;79.74;100536.55;1726299;83;25760;-75
2021/01/18 00:55:51;;;;;;;56.53;27.15;;;;;;;-15.42;79.78;100541.45;1747071;80;25152;-75
2021/01/18 00:58:21;;;;;;;55.55;27.77;;;;;;;-15.41;79.65;100546.97;1704940;82;25383;-75
2021/01/18 01:00:58;;;;;;;55.03;25.83;;;;;;;-15.34;79.59;100548.94;1818350;78;27504;-75
2021/01/18 01:03:25;;;;;;;47.40;23.55;;;;;;;-15.42;79.62;100546.90;1788894;79;25225;-75
2021/01/18 01:05:52;;;;;;;51.55;26.05;;;;;;;-15.47;79.79;100540.80;1789365;79;25764;-75
2021/01/18 01:08:18;;;;;;;54.80;27.27;;;;;;;-15.48;79.61;100545.37;1789340;79;25214;-75
2021/01/18 01:10:45;;;;;;;54.35;26.55;;;;;;;-15.48;79.63;100547.89;1789549;80;25209;-75
2021/01/18 01:13:14;;;;;;;52.17;24.70;;;;;;;-15.50;79.58;100542.78;1789388;80;25277;-75
2021/01/18 01:15:40;;;;;;;49.35;24.92;;;;;;;-15.51;79.63;100539.82;1789189;79;25741;-75
2021/01/18 01:18:08;;;;;;;50.67;27.30;;;;;;;-15.54;79.64;100540.95;1789375;79;25297;-75
2021/01/18 01:20:34;;;;;;;50.25;24.77;;;;;;;-15.54;79.76;100534.64;1789333;79;25229;-74
2021/01/18 01:23:02;;;;;;;52.95;24.23;;;;;;;-15.56;79.69;100536.24;1789225;79;25277;-75
2021/01/18 01:25:31;;;;;;;59.77;29.00;;;;;;;-15.59;79.66;100528.55;1788933;79;25210;-75
2021/01/18 01:27:57;;;;;;;60.12;29.55;;;;;;;-15.62;79.61;100534.30;1789357;79;25685;-75
2021/01/18 01:30:25;;;;;;;61.80;30.68;;;;;;;-15.67;79.47;100538.70;1789335;79;25368;-75
2021/01/18 01:32:53;;;;;;;67.50;33.53;;;;;;;-15.70;79.50;100550.77;1789276;79;25815;-75
2021/01/18 01:35:26;;;;;;;67.22;30.17;;;;;;;-15.73;79.51;100535.13;1788811;79;25687;-74
2021/01/18 01:37:54;;;;;;;68.60;31.95;;;;;;;-15.74;79.41;100533.38;1789315;79;25301;-74
2021/01/18 01:40:21;;;;;;;61.73;29.85;;;;;;;-15.73;79.48;100535.13;1788782;79;25763;-74
2021/01/18 01:42:49;;;;;;;61.70;28.73;;;;;;;-15.73;79.38;100532.60;1789208;80;25628;-74
2021/01/18 01:45:18;;;;;;;62.38;29.15;;;;;;;-15.73;79.41;100526.30;1789316;80;25383;-74
2021/01/18 01:47:49;;;;;;;65.80;30.20;;;;;;;-15.73;79.37;100518.73;1789205;79;25851;-75
2021/01/18 01:50:28;;;;;;;58.00;29.77;;;;;;;-15.77;79.25;100523.20;1776255;79;25199;-74
2021/01/18 01:52:59;;;;;;;64.32;31.20;;;;;;;-15.80;79.18;100519.69;1757806;80;25353;-74
2021/01/18 01:55:33;;;;;;;64.97;28.73;;;;;;;-15.80;79.22;100518.05;1818403;78;26881;-74
2021/01/18 01:58:02;;;;;;;61.65;29.65;;;;;;;-15.88;79.21;100515.59;1789012;79;25790;-75
2021/01/18 02:00:39;;;;;;;68.00;32.42;;;;;;;-15.97;78.87;100509.73;1789010;80;25716;-75
2021/01/18 02:03:34;;;;;;;74.70;35.10;;;;;;;-15.97;79.07;100509.73;1789251;79;25225;-75
2021/01/18 02:06:01;;;;;;;57.75;26.52;;;;;;;-16.03;79.06;100507.34;1788886;79;25207;-74
2021/01/18 02:08:27;;;;;;;68.92;32.25;;;;;;;-16.06;79.17;100501.39;1789100;79;25282;-74
2021/01/18 02:10:54;;;;;;;69.87;32.00;;;;;;;-16.08;79.19;100499.20;1762706;80;25290;-74
2021/01/18 02:13:35;;;;;;;72.75;34.58;;;;;;;-16.10;79.15;100502.06;1789393;79;25217;-74
2021/01/18 02:16:37;;;;;;;70.78;31.05;;;;;;;-16.14;79.11;100497.67;1789276;79;25267;-74
2021/01/18 02:19:56;;;;;;;61.48;30.88;;;;;;;-16.19;79.00;100502.91;1789471;80;25202;-74
2021/01/18 02:22:43;;;;;;;62.08;28.35;;;;;;;-16.23;79.07;100508.62;1788524;79;25210;-74
2021/01/18 02:28:45;;;;;;;59.38;27.75;;;;;;;-16.27;78.96;100512.66;1705316;82;25633;-75
2021/01/18 02:31:54;;;;;;;62.48;27.67;;;;;;;-16.28;79.01;100501.26;1694500;83;25290;-74
2021/01/18 02:34:59;;;;;;;51.45;26.90;;;;;;;-16.29;78.92;100508.34;1680774;85;25329;-74
2021/01/18 02:38:04;;;;;;;57.43;25.17;;;;;;;-16.35;78.76;100503.02;1709068;83;25340;-74
2021/01/18 02:41:03;;;;;;;56.68;26.57;;;;;;;-16.40;78.85;100507.87;1712270;83;25356;-75
2021/01/18 02:43:34;;;;;;;54.42;23.75;;;;;;;-16.42;78.91;100508.17;1680513;85;25228;-74
2021/01/18 02:46:02;;;;;;;50.30;23.02;;;;;;;-16.46;78.91;100502.14;1710586;82;25315;-74
2021/01/18 02:48:31;;;;;;;50.45;24.30;;;;;;;-16.50;78.97;100499.44;1742181;81;25373;-74
2021/01/18 02:51:01;;;;;;;51.15;25.10;;;;;;;-16.53;79.03;100496.78;1750421;80;25814;-74
2021/01/18 02:53:28;;;;;;;52.90;24.72;;;;;;;-16.51;79.03;100499.81;1757066;81;25295;-74
2021/01/18 02:55:55;;;;;;;52.33;24.02;;;;;;;-16.50;79.03;100509.52;1757493;80;25336;-73
2021/01/18 02:58:22;;;;;;;46.85;24.30;;;;;;;-16.44;79.11;100499.32;1732439;81;25083;-74
2021/01/18 03:01:13;;;;;;;48.08;23.80;;;;;;;-16.42;79.05;100503.55;1757272;80;25143;-74
2021/01/18 03:04:06;;;;;;;33.73;17.10;;;;;;;-16.37;79.12;100494.53;1889449;76;26805;-75
2021/01/18 03:06:49;;;;;;;41.95;21.48;;;;;;;-16.46;79.09;100502.14;1860178;77;25254;-75
2021/01/18 03:09:19;;;;;;;43.25;21.50;;;;;;;-16.46;79.04;100507.18;1845946;77;25206;-75
2021/01/18 03:11:50;;;;;;;39.53;19.32;;;;;;;-16.45;79.06;100512.70;1789828;80;25305;-76
2021/01/18 03:14:39;;;;;;;35.17;17.23;;;;;;;-16.39;79.10;100498.65;1817333;77;27522;-75
2021/01/18 03:17:06;;;;;;;37.53;18.35;;;;;;;-16.51;79.27;100497.70;1787766;79;25225;-75
2021/01/18 03:19:43;;;;;;;40.28;20.50;;;;;;;-16.55;79.32;100495.45;1788269;79;25601;-75
2021/01/18 03:22:10;;;;;;;26.77;13.45;;;;;;;-16.54;79.32;100498.41;1788138;79;25257;-75
2021/01/18 03:24:37;;;;;;;27.65;13.80;;;;;;;-16.52;79.20;100489.67;1787820;79;25677;-74
2021/01/18 03:27:05;;;;;;;36.77;17.65;;;;;;;-16.55;79.10;100490.41;1788474;79;25185;-75
2021/01/18 03:29:31;;;;;;;39.73;18.35;;;;;;;-16.60;79.17;100493.12;1757749;80;25261;-74
2021/01/18 03:31:58;;;;;;;26.65;12.70;;;;;;;-16.61;79.10;100487.61;1788083;79;25698;-75
2021/01/18 03:34:25;;;;;;;36.42;18.05;;;;;;;-16.67;79.45;100485.69;1788248;80;25265;-75
2021/01/18 03:36:52;;;;;;;34.80;16.85;;;;;;;-16.69;79.21;100482.62;1788486;80;25190;-75
2021/01/18 03:39:19;;;;;;;34.43;14.93;;;;;;;-16.74;79.27;100483.66;1787848;79;25363;-75
2021/01/18 03:41:46;;;;;;;36.17;17.90;;;;;;;-16.81;79.61;100481.26;1787931;79;25752;-75
2021/01/18 03:44:13;;;;;;;25.90;13.70;;;;;;;-16.82;79.41;100479.95;1788161;80;25765;-75
2021/01/18 03:46:45;;;;;;;34.03;14.38;;;;;;;-16.82;79.69;100477.03;1788200;80;25288;-76
2021/01/18 03:49:12;;;;;;;25.12;12.43;;;;;;;-16.83;79.57;100469.00;1788306;79;25194;-75
2021/01/18 03:51:39;;;;;;;32.03;15.83;;;;;;;-16.91;80.54;100475.37;1756655;80;25329;-75
2021/01/18 03:54:06;;;;;;;29.82;14.78;;;;;;;-16.91;79.86;100476.63;1751249;82;25205;-75
2021/01/18 03:56:41;;;;;;;31.87;16.05;;;;;;;-16.88;79.81;100476.77;1751212;82;25599;-75
2021/01/18 03:59:16;;;;;;;32.80;16.63;;;;;;;-16.77;80.07;100481.41;1818492;78;27525;-75
2021/01/18 04:01:43;;;;;;;33.25;17.73;;;;;;;-16.76;80.22;100480.63;1789466;80;25250;-75
2021/01/18 04:04:10;;;;;;;31.35;14.55;;;;;;;-16.65;80.35;100478.20;1789155;79;25230;-75
2021/01/18 04:06:37;;;;;;;24.40;12.65;;;;;;;-16.52;80.30;100477.97;1789402;79;25657;-75
2021/01/18 04:09:04;;;;;;;27.70;14.43;;;;;;;-16.42;80.70;100478.36;1789294;80;25210;-75
2021/01/18 04:11:32;;;;;;;33.00;16.48;;;;;;;-16.34;80.41;100471.60;1787635;80;25705;-75
2021/01/18 04:13:58;;;;;;;28.83;15.20;;;;;;;-16.27;80.47;100470.22;1789392;80;25313;-75
2021/01/18 04:16:25;;;;;;;25.72;13.78;;;;;;;-16.19;80.29;100466.38;1789067;79;25656;-75
2021/01/18 04:18:52;;;;;;;30.65;16.23;;;;;;;-16.12;80.43;100465.86;1789368;79;25281;-75
2021/01/18 04:21:20;;;;;;;27.87;15.08;;;;;;;-16.06;80.71;100462.73;1789038;80;25274;-74
2021/01/18 04:23:55;;;;;;;31.33;13.80;;;;;;;-15.90;80.44;100459.19;1818156;78;26856;-75
2021/01/18 04:26:21;;;;;;;28.65;12.85;;;;;;;-15.86;80.48;100462.32;1789198;79;25366;-74
2021/01/18 04:28:48;;;;;;;27.82;14.15;;;;;;;-15.82;80.58;100449.03;1789335;80;25226;-75
2021/01/18 04:31:15;;;;;;;26.07;14.55;;;;;;;-15.81;80.33;100449.51;1789331;79;25241;-75
2021/01/18 04:33:42;;;;;;;28.52;13.25;;;;;;;-15.78;80.19;100448.79;1789053;79;25218;-74
2021/01/18 04:36:10;;;;;;;28.55;14.55;;;;;;;-15.82;80.06;100454.08;1789341;79;25289;-74
2021/01/18 04:38:36;;;;;;;31.07;15.80;;;;;;;-15.82;80.04;100449.03;1789210;80;25344;-76
2021/01/18 04:41:09;;;;;;;22.73;12.20;;;;;;;-15.79;80.06;100446.64;1789360;79;25281;-75
2021/01/18 04:43:38;;;;;;;27.32;13.30;;;;;;;-15.73;80.10;100446.02;1788974;80;25234;-75
2021/01/18 04:46:10;;;;;;;26.82;14.60;;;;;;;-15.71;80.18;100440.23;1763443;80;25271;-75
2021/01/18 04:48:39;;;;;;;26.65;13.25;;;;;;;-15.69;80.29;100448.71;1789356;80;25195;-75
2021/01/18 04:51:07;;;;;;;28.23;14.45;;;;;;;-15.62;80.26;100443.93;1760249;80;25724;-75
2021/01/18 04:53:33;;;;;;;32.23;15.65;;;;;;;-15.56;80.27;100444.19;1784032;79;25214;-76
2021/01/18 04:56:48;;;;;;;32.80;15.93;;;;;;;-15.50;80.40;100447.83;1783953;79;25720;-76
2021/01/18 04:59:18;;;;;;;30.77;16.45;;;;;;;-15.44;80.35;100450.13;1784205;80;25210;-74
2021/01/18 05:01:44;;;;;;;32.67;16.32;;;;;;;-15.36;80.50;100454.67;1783511;79;25139;-74
2021/01/18 05:04:17;;;;;;;33.13;17.23;;;;;;;-15.24;80.57;100463.54;1784086;79;25339;-74
2021/01/18 05:06:51;;;;;;;36.43;17.00;;;;;;;-15.07;80.61;100466.31;1849807;76;26537;-75
2021/01/18 05:09:28;;;;;;;51.70;23.55;;;;;;;-15.02;80.68;100473.66;1778779;78;25584;-74
2021/01/18 05:11:57;;;;;;;36.10;17.57;;;;;;;-14.81;80.69;100472.76;1819261;77;25283;-75
2021/01/18 05:14:24;;;;;;;32.63;16.80;;;;;;;-14.65;80.89;100477.59;1819498;77;25266;-75
2021/01/18 05:16:56;;;;;;;35.90;17.82;;;;;;;-14.54;80.77;100471.66;1819618;77;25335;-75
2021/01/18 05:19:24;;;;;;;32.90;16.57;;;;;;;-14.46;80.78;100469.40;1819714;77;25187;-75
2021/01/18 05:21:51;;;;;;;31.90;15.68;;;;;;;-14.36;80.76;100476.51;1819352;77;25279;-75
2021/01/18 05:24:19;;;;;;;40.33;19.10;;;;;;;-14.30;80.60;100467.05;1819698;77;25251;-75
2021/01/18 05:27:03;;;;;;;40.12;19.15;;;;;;;-14.24;80.57;100469.77;1819064;77;25263;-75
2021/01/18 05:29:36;;;;;;;36.35;18.20;;;;;;;-14.21;80.38;100462.30;1819636;78;25745;-74
2021/01/18 05:32:05;;;;;;;41.48;20.05;;;;;;;-14.22;79.97;100470.71;1819232;78;25259;-74
2021/01/18 05:34:32;;;;;;;41.88;18.57;;;;;;;-14.23;80.08;100472.77;1786225;78;25243;-74
2021/01/18 05:36:58;;;;;;;29.72;15.32;;;;;;;-14.23;79.99;100460.98;1819114;78;25295;-74
2021/01/18 05:39:33;;;;;;;30.88;15.40;;;;;;;-14.25;79.57;100463.86;1819475;78;25255;-74
2021/01/18 05:42:00;;;;;;;29.42;15.32;;;;;;;-14.24;79.84;100447.91;1819335;77;25195;-74
2021/01/18 05:44:35;;;;;;;37.17;17.70;;;;;;;-14.21;80.02;100453.45;1819583;78;25246;-75
2021/01/18 05:47:10;;;;;;;47.15;22.93;;;;;;;-14.17;80.04;100450.63;1819513;78;25298;-75
2021/01/18 05:49:49;;;;;;;43.98;18.65;;;;;;;-14.10;80.28;100458.91;1819547;78;25346;-75
2021/01/18 05:52:31;;;;;;;38.92;19.12;;;;;;;-14.01;80.26;100451.25;1767869;80;25132;-75
2021/01/18 05:55:25;;;;;;;42.38;21.10;;;;;;;-14.11;79.48;100444.54;1787319;79;25253;-75
2021/01/18 05:57:54;;;;;;;40.00;17.57;;;;;;;-14.15;79.71;100448.62;1771986;80;25257;-74
2021/01/18 06:00:36;;;;;;;44.05;21.05;;;;;;;-14.14;79.59;100438.10;1786755;79;25190;-74
2021/01/18 06:03:09;;;;;;;32.33;16.62;;;;;;;-14.22;79.42;100442.91;1776451;80;25273;-74
2021/01/18 06:05:39;;;;;;;41.42;20.32;;;;;;;-14.17;79.68;100444.31;1766026;79;25327;-74
2021/01/18 06:08:17;;;;;;;34.92;18.62;;;;;;;-14.15;79.95;100447.78;1796254;78;25186;-74
2021/01/18 06:10:45;;;;;;;47.40;22.62;;;;;;;-14.07;80.09;100442.59;1796407;79;25268;-74
2021/01/18 06:16:12;;;;;;;43.57;18.90;;;;;;;-13.85;80.18;100438.71;1817157;77;26920;-76
2021/01/18 06:18:41;;;;;;;40.67;21.50;;;;;;;-13.89;79.82;100439.81;1788203;80;25283;-75
2021/01/18 06:21:09;;;;;;;35.10;18.80;;;;;;;-13.87;79.90;100441.59;1788420;80;25667;-75
2021/01/18 06:23:37;;;;;;;41.53;21.40;;;;;;;-13.82;79.83;100436.29;1787853;79;25679;-75
2021/01/18 06:26:04;;;;;;;39.40;19.37;;;;;;;-13.79;79.91;100443.52;1788215;80;25328;-75
2021/01/18 06:28:37;;;;;;;35.17;18.60;;;;;;;-13.75;79.98;100447.47;1787592;79;25272;-75
2021/01/18 06:31:12;;;;;;;35.07;17.37;;;;;;;-13.67;79.92;100441.42;1817317;77;27464;-75
2021/01/18 06:33:49;;;;;;;41.18;20.37;;;;;;;-13.78;78.95;100449.89;1778657;79;25129;-74
2021/01/18 06:36:24;;;;;;;35.10;17.73;;;;;;;-13.80;79.36;100448.14;1764984;79;25345;-75
2021/01/18 06:38:59;;;;;;;39.30;20.37;;;;;;;-13.82;79.54;100435.03;1757066;81;25619;-75
2021/01/18 06:41:31;;;;;;;39.13;19.15;;;;;;;-13.76;79.72;100450.80;1766402;80;25274;-75
2021/01/18 06:43:59;;;;;;;40.40;19.57;;;;;;;-13.73;79.44;100447.53;1757115;80;25270;-75
2021/01/18 06:46:31;;;;;;;41.90;21.45;;;;;;;-13.81;79.19;100440.94;1766207;80;25260;-75
2021/01/18 06:48:58;;;;;;;39.53;20.17;;;;;;;-13.83;79.45;100437.09;1776051;79;25479;-75
2021/01/18 06:51:27;;;;;;;31.52;16.45;;;;;;;-13.84;79.29;100434.13;1763286;80;25585;-75
2021/01/18 06:53:57;;;;;;;24.32;13.05;;;;;;;-13.85;79.34;100440.39;1741003;82;25312;-75
2021/01/18 06:56:48;;;;;;;34.57;19.63;;;;;;;-13.83;79.23;100437.50;1848357;76;27042;-74
2021/01/18 06:59:36;;;;;;;34.05;17.37;;;;;;;-13.86;79.64;100450.03;1836918;76;25209;-75
2021/01/18 07:05:10;;;;;;;33.43;16.70;;;;;;;-13.78;78.98;100435.13;1849893;76;26776;-75
2021/01/18 07:07:38;;;;;;;35.03;16.93;;;;;;;-13.84;78.99;100451.83;1819087;77;25374;-75
2021/01/18 07:10:09;;;;;;;30.55;16.30;;;;;;;-13.82;79.12;100448.94;1819419;78;25318;-74
2021/01/18 07:12:36;;;;;;;38.05;16.42;;;;;;;-13.75;79.45;100439.89;1819526;77;25315;-74
2021/01/18 07:15:10;;;;;;;38.30;19.50;;;;;;;-13.72;79.24;100442.91;1819189;77;25286;-75
2021/01/18 07:17:53;;;;;;;33.10;16.20;;;;;;;-13.60;79.60;100448.81;1819805;77;25282;-76
2021/01/18 07:20:26;;;;;;;40.35;19.12;;;;;;;-13.53;79.19;100448.19;1819880;77;25157;-76
2021/01/18 07:23:14;;;;;;;39.25;19.73;;;;;;;-13.48;79.30;100447.94;1819709;78;25278;-75
2021/01/18 07:25:43;;;;;;;33.78;18.77;;;;;;;-13.37;79.48;100441.94;1819694;78;25286;-75
2021/01/18 07:28:13;;;;;;;41.30;20.27;;;;;;;-13.27;79.23;100446.45;1788882;78;25706;-75
2021/01/18 07:30:39;;;;;;;48.83;23.35;;;;;;;-13.21;79.09;100441.59;1819585;77;25298;-74
2021/01/18 07:33:14;;;;;;;48.80;22.70;;;;;;;-13.09;79.31;100450.83;1819678;78;25109;-76
2021/01/18 07:35:43;;;;;;;60.00;28.23;;;;;;;-12.88;79.50;100451.05;1819732;77;25662;-76
2021/01/18 07:38:16;;;;;;;50.67;27.02;;;;;;;-12.81;79.15;100452.95;1819560;78;25330;-76
2021/01/18 07:41:10;;;;;;;45.28;20.77;;;;;;;-12.64;79.25;100448.80;1819728;77;25746;-76
2021/01/18 07:43:44;;;;;;;47.83;23.45;;;;;;;-12.71;77.59;100457.47;1819239;78;25725;-75
2021/01/18 07:46:32;;;;;;;46.23;23.18;;;;;;;-12.75;77.78;100450.61;1816637;77;25587;-76
2021/01/18 07:49:24;;;;;;;42.08;21.37;;;;;;;-12.71;78.40;100447.34;1819844;77;25200;-76
2021/01/18 07:51:53;;;;;;;47.83;22.98;;;;;;;-12.75;77.94;100449.73;1789935;78;25207;-74
2021/01/18 07:54:33;;;;;;;37.10;18.32;;;;;;;-12.65;78.20;100454.66;1718947;80;25642;-75
2021/01/18 07:57:36;;;;;;;36.38;18.75;;;;;;;-12.64;77.30;100452.59;1772047;79;25041;-75
2021/01/18 08:00:24;;;;;;;38.25;19.87;;;;;;;-12.51;78.37;100450.45;1754330;79;25180;-77
2021/01/18 08:03:12;;;;;;;46.23;22.45;;;;;;;-12.45;78.13;100442.19;1784267;79;25265;-75
2021/01/18 08:05:42;;;;;;;45.78;21.57;;;;;;;-12.35;78.28;100432.75;1784045;79;25726;-76
2021/01/18 08:08:14;;;;;;;41.98;21.33;;;;;;;-12.17;78.07;100431.11;1753226;80;25262;-76
2021/01/18 08:10:57;;;;;;;45.15;22.42;;;;;;;-12.02;77.81;100427.28;1784646;79;25189;-76
2021/01/18 08:13:55;;;;;;;41.20;20.68;;;;;;;-11.85;77.81;100425.15;1786688;79;25732;-76
2021/01/18 08:16:39;;;;;;;48.95;23.67;;;;;;;-11.66;77.48;100418.46;1786363;79;25686;-75
2021/01/18 08:19:19;;;;;;;39.05;21.20;;;;;;;-11.44;77.36;100422.38;1772067;80;25418;-75
2021/01/18 08:22:00;;;;;;;42.10;22.42;;;;;;;-11.15;78.10;100423.48;1783363;79;25215;-75
2021/01/18 08:24:35;;;;;;;44.67;24.87;;;;;;;-11.09;77.00;100418.55;1785602;79;25695;-75
2021/01/18 08:27:07;;;;;;;44.42;24.20;;;;;;;-11.03;77.58;100421.20;1787132;79;25442;-76
2021/01/18 08:29:45;;;;;;;46.60;25.30;;;;;;;-11.03;77.10;100412.73;1787127;79;25209;-76
2021/01/18 08:32:35;;;;;;;42.67;21.70;;;;;;;-10.95;77.91;100414.19;1787469;79;25439;-76
2021/01/18 08:35:28;;;;;;;48.23;24.57;;;;;;;-10.87;77.50;100416.48;1785856;79;25511;-76
2021/01/18 08:38:04;;;;;;;36.57;19.10;;;;;;;-10.89;76.85;100422.81;1783977;79;25623;-76
2021/01/18 08:40:46;;;;;;;47.38;24.27;;;;;;;-10.91;76.60;100428.27;1784221;79;25676;-77
2021/01/18 08:43:21;;;;;;;46.23;24.80;;;;;;;-10.94;77.22;100428.59;1756104;80;25227;-77
2021/01/18 08:45:50;;;;;;;50.13;25.73;;;;;;;-10.98;77.32;100426.82;1756314;80;26079;-76
2021/01/18 08:48:22;;;;;;;48.57;25.20;;;;;;;-10.99;76.81;100431.44;1755827;81;25633;-74
2021/01/18 08:50:55;;;;;;;45.50;23.10;;;;;;;-10.92;77.39;100428.23;1755920;80;25519;-76
2021/01/18 08:53:41;;;;;;;49.90;26.03;;;;;;;-10.92;76.45;100435.44;1777823;80;25489;-76
2021/01/18 08:56:29;;;;;;;55.30;29.43;;;;;;;-10.95;76.13;100434.09;1783619;79;25408;-76
2021/01/18 08:58:57;;;;;;;68.00;35.93;;;;;;;-10.72;77.39;100445.20;1783106;80;25759;-76
2021/01/18 09:01:30;;;;;;;54.80;28.97;;;;;;;-10.55;76.95;100449.38;1787195;79;25413;-76
2021/01/18 09:04:08;;;;;;;51.70;26.33;;;;;;;-10.46;75.86;100451.66;1785892;79;25452;-75
2021/01/18 09:06:35;;;;;;;48.13;25.43;;;;;;;-10.26;76.64;100452.47;1790867;80;25897;-75
2021/01/18 09:09:04;;;;;;;56.33;30.73;;;;;;;-10.14;75.41;100440.41;1788794;79;25273;-75
2021/01/18 09:11:33;;;;;;;46.70;24.07;;;;;;;-10.01;75.99;100432.60;1789171;80;25432;-75
2021/01/18 09:14:08;;;;;;;56.77;28.20;;;;;;;-10.00;74.72;100432.63;1790241;78;25427;-75
2021/01/18 09:16:41;;;;;;;56.83;28.67;;;;;;;-9.97;75.17;100432.69;1790582;78;25561;-76
2021/01/18 09:19:08;;;;;;;55.53;30.10;;;;;;;-10.05;74.75;100434.63;1790573;79;25324;-76
2021/01/18 09:21:36;;;;;;;55.57;27.97;;;;;;;-10.08;74.24;100432.89;1790590;78;25549;-75
2021/01/18 09:24:09;;;;;;;51.33;27.47;;;;;;;-10.09;74.91;100424.42;1789871;78;25861;-76
2021/01/18 09:26:37;;;;;;;47.10;24.17;;;;;;;-10.08;75.37;100431.20;1787742;78;25336;-77
2021/01/18 09:29:04;;;;;;;57.17;31.73;;;;;;;-10.12;74.38;100429.44;1790745;80;25383;-76
2021/01/18 09:31:30;;;;;;;57.60;29.87;;;;;;;-10.09;74.88;100430.78;1790564;80;25186;-77
2021/01/18 09:34:11;;;;;;;62.67;32.73;;;;;;;-9.96;74.95;100428.45;1786051;79;25464;-77
2021/01/18 09:36:39;;;;;;;55.70;29.03;;;;;;;-9.88;75.07;100432.00;1742775;79;25418;-76
2021/01/18 09:39:06;;;;;;;60.60;29.97;;;;;;;-9.76;74.32;100427.11;1790692;80;25898;-75
2021/01/18 09:41:33;;;;;;;61.83;32.73;;;;;;;-9.80;73.17;100421.55;1764134;80;25476;-75
2021/01/18 09:44:00;;;;;;;63.70;32.30;;;;;;;-9.63;74.47;100426.08;1790478;78;25475;-75
2021/01/18 09:46:26;;;;;;;59.93;32.17;;;;;;;-9.52;73.68;100420.73;1714765;80;25469;-76
2021/01/18 09:48:53;;;;;;;66.23;35.00;;;;;;;-9.30;75.15;100420.66;1788067;79;25920;-75
2021/01/18 09:51:20;;;;;;;67.00;36.10;;;;;;;-9.26;73.87;100425.41;1784386;79;25545;-77
2021/01/18 09:53:57;;;;;;;64.13;34.37;;;;;;;-9.24;72.72;100422.03;1784591;80;25379;-76
2021/01/18 09:56:24;;;;;;;65.43;35.77;;;;;;;-9.04;73.90;100424.88;1788171;78;25456;-76
2021/01/18 09:58:54;;;;;;;66.33;37.40;;;;;;;-8.65;74.90;100404.59;1757749;79;25787;-76
2021/01/18 10:01:24;;;;;;;75.00;42.90;;;;;;;-8.65;74.90;100404.59;1785299;79;25555;-76
2021/01/18 10:03:53;;;;;;;79.37;46.77;;;;;;;-8.21;74.88;100422.52;1786775;79;26005;-75
2021/01/18 10:06:28;;;;;;;61.93;35.43;;;;;;;-7.90;74.07;100418.62;1804069;77;26672;-77
2021/01/18 10:09:07;;;;;;;64.80;36.80;;;;;;;-7.89;73.47;100420.34;1752874;80;25581;-76
2021/01/18 10:11:48;;;;;;;73.03;38.63;;;;;;;-7.84;73.52;100419.13;1788402;79;26017;-76
2021/01/18 10:14:28;;;;;;;88.60;51.13;;;;;;;-7.61;72.82;100416.77;1785661;79;25591;-76
2021/01/18 10:17:06;;;;;;;73.87;43.07;;;;;;;-7.65;72.21;100409.92;1757271;81;25595;-76
2021/01/18 10:19:40;;;;;;;66.23;37.63;;;;;;;-7.57;72.79;100401.91;1757103;81;25614;-76
2021/01/18 10:22:17;;;;;;;68.33;41.47;;;;;;;-7.51;72.69;100397.27;1766556;80;26405;-76
2021/01/18 10:24:56;;;;;;;55.70;30.03;;;;;;;-7.64;70.55;100375.89;1780300;79;25671;-76
2021/01/18 10:27:25;;;;;;;54.30;31.40;;;;;;;-7.64;70.55;100375.89;1782727;80;25858;-76
2021/01/18 10:30:14;;;;;;;65.93;34.87;;;;;;;-7.71;69.58;100371.14;1774555;79;25783;-74
2021/01/18 10:32:44;;;;;;;63.77;36.30;;;;;;;-7.65;70.27;100390.77;1778398;80;25851;-76
2021/01/18 10:35:26;;;;;;;61.37;35.90;;;;;;;-7.52;70.84;100378.97;1760017;80;26469;-76
2021/01/18 10:37:53;;;;;;;66.63;37.07;;;;;;;-7.16;72.87;100374.52;1757113;81;25770;-74
2021/01/18 10:40:21;;;;;;;58.87;32.97;;;;;;;-6.96;72.25;100377.63;1757036;81;26467;-75
2021/01/18 10:42:53;;;;;;;62.13;36.13;;;;;;;-6.94;70.59;100378.49;1757227;80;26392;-75
2021/01/18 10:45:22;;;;;;;61.67;34.47;;;;;;;-6.97;70.88;100369.12;1757283;80;25986;-76
2021/01/18 10:47:54;;;;;;;58.30;33.00;;;;;;;-6.83;71.63;100374.30;1757336;80;26026;-75
2021/01/18 10:50:30;;;;;;;68.67;35.80;;;;;;;-6.90;68.39;100373.84;1762153;80;26326;-74
2021/01/18 10:53:10;;;;;;;70.17;39.80;;;;;;;-6.67;71.44;100367.97;1811693;78;27463;-75
2021/01/18 10:55:38;;;;;;;72.83;39.90;;;;;;;-6.77;70.50;100369.22;1797612;79;25209;-75
2021/01/18 10:58:06;;;;;;;80.80;44.93;;;;;;;-6.75;70.05;100370.52;1759466;80;25968;-75
2021/01/18 11:00:37;;;;;;;72.27;40.60;;;;;;;-6.68;71.18;100370.13;1757758;80;26301;-75
2021/01/18 11:03:03;;;;;;;74.87;41.83;;;;;;;-6.66;70.92;100369.27;1738654;81;25972;-75
2021/01/18 11:05:35;;;;;;;95.00;53.27;;;;;;;-6.63;70.07;100371.00;1738858;80;26430;-75
2021/01/18 11:08:10;;;;;;;82.97;44.37;;;;;;;-6.63;68.63;100365.87;1919782;72;26793;-75
2021/01/18 11:10:40;;;;;;;93.77;51.07;;;;;;;-6.66;70.82;100374.38;1893964;74;25215;-74
2021/01/18 11:13:11;;;;;;;80.97;45.03;;;;;;;-6.60;70.92;100368.42;1862992;76;26334;-75
2021/01/18 11:15:41;;;;;;;85.27;46.80;;;;;;;-6.57;70.51;100356.92;1897990;75;25865;-75
2021/01/18 11:18:10;;;;;;;84.00;46.60;;;;;;;-6.44;71.20;100363.80;1897995;75;25945;-75
2021/01/18 11:20:39;;;;;;;85.20;46.47;;;;;;;-6.39;70.65;100359.55;1882957;75;25870;-74
2021/01/18 11:25:42;;;;;;;79.73;46.07;;;;;;;-6.40;68.66;100343.78;1850040;75;27371;-75
2021/01/18 11:28:15;;;;;;;74.87;42.70;;;;;;;-6.42;69.88;100344.61;1819696;77;25283;-75
2021/01/18 11:30:43;;;;;;;71.83;40.77;;;;;;;-6.35;69.96;100342.09;1767329;79;25876;-75
2021/01/18 11:33:10;;;;;;;69.50;40.50;;;;;;;-6.34;69.17;100336.09;1787625;79;26382;-76
2021/01/18 11:35:38;;;;;;;77.20;43.50;;;;;;;-6.53;69.21;100313.45;1787486;79;25692;-76
2021/01/18 11:38:06;;;;;;;70.23;40.67;;;;;;;-6.26;70.50;100323.77;1798636;78;25279;-74
2021/01/18 11:40:32;;;;;;;74.80;43.47;;;;;;;-5.74;71.18;100323.78;1819327;77;25984;-74